sensor_id;sensor_type;location;lat;lon;timestamp;temperature;humidity
43524;DHT22;29120;52.006;6.020;2022-12-18T00:01:23;-3.10;99.90
43524;DHT22;29120;52.006;6.020;2022-12-18T00:03:49;-3.10;99.90
43524;DHT22;29120;52.006;6.020;2022-12-18T00:06:15;-3.20;99.90
43524;DHT22;29120;52.006;6.020;2022-12-18T00:08:41;-3.10;99.90
43524;DHT22;29120;52.006;6.020;2022-12-18T00:11:08;-3.20;99.90
43524;DHT22;29120;52.006;6.020;2022-12-18T00:13:35;-3.20;99.90
43524;DHT22;29120;52.006;6.020;2022-12-18T00:16:02;-3.20;99.90
43524;DHT22;29120;52.006;6.020;2022-12-18T00:18:27;-3.20;99.90
43524;DHT22;29120;52.006;6.020;2022-12-18T00:20:53;-3.20;99.90
43524;DHT22;29120;52.006;6.020;2022-12-18T00:23:18;-3.20;99.90
43524;DHT22;29120;52.006;6.020;2022-12-18T00:25:44;-3.30;99.90
43524;DHT22;29120;52.006;6.020;2022-12-18T00:28:09;-3.30;99.90
43524;DHT22;29120;52.006;6.020;2022-12-18T00:30:35;-3.30;99.90
43524;DHT22;29120;52.006;6.020;2022-12-18T00:33:00;-3.30;99.90
43524;DHT22;29120;52.006;6.020;2022-12-18T00:35:26;-3.30;99.90
43524;DHT22;29120;52.006;6.020;2022-12-18T00:37:51;-3.30;99.90
43524;DHT22;29120;52.006;6.020;2022-12-18T00:40:17;-3.30;99.90
43524;DHT22;29120;52.006;6.020;2022-12-18T00:42:42;-3.30;99.90
43524;DHT22;29120;52.006;6.020;2022-12-18T00:45:27;-3.30;99.90
43524;DHT22;29120;52.006;6.020;2022-12-18T00:47:52;-3.30;99.90
43524;DHT22;29120;52.006;6.020;2022-12-18T00:50:18;-3.40;99.90
43524;DHT22;29120;52.006;6.020;2022-12-18T00:52:44;-3.40;99.90
43524;DHT22;29120;52.006;6.020;2022-12-18T00:55:10;-3.40;99.90
43524;DHT22;29120;52.006;6.020;2022-12-18T00:57:36;-3.50;99.90
43524;DHT22;29120;52.006;6.020;2022-12-18T01:00:02;-3.50;99.90
43524;DHT22;29120;52.006;6.020;2022-12-18T01:02:28;-3.50;99.90
43524;DHT22;29120;52.006;6.020;2022-12-18T01:04:53;-3.60;99.90
43524;DHT22;29120;52.006;6.020;2022-12-18T01:07:19;-3.60;99.90
43524;DHT22;29120;52.006;6.020;2022-12-18T01:09:44;-3.70;99.90
43524;DHT22;29120;52.006;6.020;2022-12-18T01:12:10;-3.80;99.90
43524;DHT22;29120;52.006;6.020;2022-12-18T01:14:36;-3.80;99.90
43524;DHT22;29120;52.006;6.020;2022-12-18T01:17:03;-3.80;99.90
43524;DHT22;29120;52.006;6.020;2022-12-18T01:19:29;-3.80;99.90
43524;DHT22;29120;52.006;6.020;2022-12-18T01:21:54;-3.70;99.90
43524;DHT22;29120;52.006;6.020;2022-12-18T01:24:20;-3.70;99.90
43524;DHT22;29120;52.006;6.020;2022-12-18T01:26:45;-3.70;99.90
43524;DHT22;29120;52.006;6.020;2022-12-18T01:29:11;-3.70;99.90
43524;DHT22;29120;52.006;6.020;2022-12-18T01:31:36;-3.80;99.90
43524;DHT22;29120;52.006;6.020;2022-12-18T01:34:02;-3.80;99.90
43524;DHT22;29120;52.006;6.020;2022-12-18T01:36:28;-3.90;99.90
43524;DHT22;29120;52.006;6.020;2022-12-18T01:38:54;-4.00;99.90
43524;DHT22;29120;52.006;6.020;2022-12-18T01:41:22;-4.00;99.90
43524;DHT22;29120;52.006;6.020;2022-12-18T01:43:52;-4.10;99.90
43524;DHT22;29120;52.006;6.020;2022-12-18T01:46:18;-4.10;99.90
43524;DHT22;29120;52.006;6.020;2022-12-18T01:48:44;-4.10;99.90
43524;DHT22;29120;52.006;6.020;2022-12-18T01:51:10;-4.10;99.90
43524;DHT22;29120;52.006;6.020;2022-12-18T01:53:37;-4.20;99.90
43524;DHT22;29120;52.006;6.020;2022-12-18T01:56:02;-4.20;99.90
43524;DHT22;29120;52.006;6.020;2022-12-18T01:58:43;-4.20;99.90
43524;DHT22;29120;52.006;6.020;2022-12-18T02:01:11;-4.20;99.90
43524;DHT22;29120;52.006;6.020;2022-12-18T02:03:37;-4.20;99.90
43524;DHT22;29120;52.006;6.020;2022-12-18T02:06:07;-4.20;99.90
43524;DHT22;29120;52.006;6.020;2022-12-18T02:11:08;-4.30;99.90
43524;DHT22;29120;52.006;6.020;2022-12-18T02:16:04;-4.40;99.90
43524;DHT22;29120;52.006;6.020;2022-12-18T02:18:38;-4.40;99.90
43524;DHT22;29120;52.006;6.020;2022-12-18T02:21:12;-4.40;99.90
43524;DHT22;29120;52.006;6.020;2022-12-18T02:26:21;-4.40;99.90
43524;DHT22;29120;52.006;6.020;2022-12-18T02:31:15;-4.40;99.90
43524;DHT22;29120;52.006;6.020;2022-12-18T02:33:43;-4.50;99.90
43524;DHT22;29120;52.006;6.020;2022-12-18T02:36:10;-4.50;99.90
43524;DHT22;29120;52.006;6.020;2022-12-18T02:38:37;-4.50;99.90
43524;DHT22;29120;52.006;6.020;2022-12-18T02:41:03;-4.60;99.90
43524;DHT22;29120;52.006;6.020;2022-12-18T02:43:29;-4.60;99.90
43524;DHT22;29120;52.006;6.020;2022-12-18T02:45:58;-4.60;99.90
43524;DHT22;29120;52.006;6.020;2022-12-18T02:48:25;-4.60;99.90
43524;DHT22;29120;52.006;6.020;2022-12-18T02:50:59;-4.60;99.90
43524;DHT22;29120;52.006;6.020;2022-12-18T02:53:32;-4.50;99.90
43524;DHT22;29120;52.006;6.020;2022-12-18T02:56:03;-4.60;99.90
43524;DHT22;29120;52.006;6.020;2022-12-18T03:01:38;-4.60;99.90
43524;DHT22;29120;52.006;6.020;2022-12-18T03:03:55;-4.60;99.90
43524;DHT22;29120;52.006;6.020;2022-12-18T03:06:24;-4.70;99.90
43524;DHT22;29120;52.006;6.020;2022-12-18T03:08:52;-4.70;99.90
43524;DHT22;29120;52.006;6.020;2022-12-18T03:11:19;-4.70;99.90
43524;DHT22;29120;52.006;6.020;2022-12-18T03:14:05;-4.70;99.90
43524;DHT22;29120;52.006;6.020;2022-12-18T03:16:31;-4.70;99.90
43524;DHT22;29120;52.006;6.020;2022-12-18T03:19:01;-4.80;99.90
43524;DHT22;29120;52.006;6.020;2022-12-18T03:21:32;-4.70;99.90
43524;DHT22;29120;52.006;6.020;2022-12-18T03:23:59;-4.70;99.90
43524;DHT22;29120;52.006;6.020;2022-12-18T03:26:25;-4.70;99.90
43524;DHT22;29120;52.006;6.020;2022-12-18T03:28:56;-4.70;99.90
43524;DHT22;29120;52.006;6.020;2022-12-18T03:31:23;-4.70;99.90
43524;DHT22;29120;52.006;6.020;2022-12-18T03:33:59;-4.70;99.90
43524;DHT22;29120;52.006;6.020;2022-12-18T03:36:26;-4.70;99.90
43524;DHT22;29120;52.006;6.020;2022-12-18T03:38:52;-4.70;99.90
43524;DHT22;29120;52.006;6.020;2022-12-18T03:43:51;-4.70;99.90
43524;DHT22;29120;52.006;6.020;2022-12-18T03:46:24;-4.70;99.90
43524;DHT22;29120;52.006;6.020;2022-12-18T03:48:52;-4.70;99.90
43524;DHT22;29120;52.006;6.020;2022-12-18T03:51:26;-4.80;99.90
43524;DHT22;29120;52.006;6.020;2022-12-18T03:54:00;-4.80;99.90
43524;DHT22;29120;52.006;6.020;2022-12-18T03:56:29;-4.80;99.90
43524;DHT22;29120;52.006;6.020;2022-12-18T03:58:56;-4.80;99.90
43524;DHT22;29120;52.006;6.020;2022-12-18T04:01:25;-4.80;99.90
43524;DHT22;29120;52.006;6.020;2022-12-18T04:03:51;-4.80;99.90
43524;DHT22;29120;52.006;6.020;2022-12-18T04:06:18;-4.80;99.90
43524;DHT22;29120;52.006;6.020;2022-12-18T04:08:43;-4.80;99.90
43524;DHT22;29120;52.006;6.020;2022-12-18T04:11:09;-4.80;99.90
43524;DHT22;29120;52.006;6.020;2022-12-18T04:13:35;-4.80;99.90
43524;DHT22;29120;52.006;6.020;2022-12-18T04:16:01;-4.80;99.90
43524;DHT22;29120;52.006;6.020;2022-12-18T04:18:27;-4.80;99.90
43524;DHT22;29120;52.006;6.020;2022-12-18T04:20:52;-4.80;99.90
43524;DHT22;29120;52.006;6.020;2022-12-18T04:23:18;-4.70;99.90
43524;DHT22;29120;52.006;6.020;2022-12-18T04:25:43;-4.80;99.90
43524;DHT22;29120;52.006;6.020;2022-12-18T04:28:09;-4.80;99.90
43524;DHT22;29120;52.006;6.020;2022-12-18T04:30:34;-4.80;99.90
43524;DHT22;29120;52.006;6.020;2022-12-18T04:33:00;-4.90;99.90
43524;DHT22;29120;52.006;6.020;2022-12-18T04:35:25;-4.90;99.90
43524;DHT22;29120;52.006;6.020;2022-12-18T04:37:51;-4.90;99.90
43524;DHT22;29120;52.006;6.020;2022-12-18T04:40:16;-4.90;99.90
43524;DHT22;29120;52.006;6.020;2022-12-18T04:42:42;-5.00;99.90
43524;DHT22;29120;52.006;6.020;2022-12-18T04:45:07;-5.00;99.90
43524;DHT22;29120;52.006;6.020;2022-12-18T04:47:33;-5.00;99.90
43524;DHT22;29120;52.006;6.020;2022-12-18T04:49:58;-5.00;99.90
43524;DHT22;29120;52.006;6.020;2022-12-18T04:52:24;-5.00;99.90
43524;DHT22;29120;52.006;6.020;2022-12-18T04:54:49;-5.00;99.90
43524;DHT22;29120;52.006;6.020;2022-12-18T04:57:15;-5.00;99.90
43524;DHT22;29120;52.006;6.020;2022-12-18T04:59:40;-4.90;99.90
43524;DHT22;29120;52.006;6.020;2022-12-18T05:02:06;-4.90;99.90
43524;DHT22;29120;52.006;6.020;2022-12-18T05:04:31;-4.90;99.90
43524;DHT22;29120;52.006;6.020;2022-12-18T05:06:57;-4.90;99.90
43524;DHT22;29120;52.006;6.020;2022-12-18T05:09:23;-4.90;99.90
43524;DHT22;29120;52.006;6.020;2022-12-18T05:11:48;-4.90;99.90
43524;DHT22;29120;52.006;6.020;2022-12-18T05:14:14;-4.90;99.90
43524;DHT22;29120;52.006;6.020;2022-12-18T05:16:39;-4.90;99.90
43524;DHT22;29120;52.006;6.020;2022-12-18T05:19:05;-4.90;99.90
43524;DHT22;29120;52.006;6.020;2022-12-18T05:21:30;-4.90;99.90
43524;DHT22;29120;52.006;6.020;2022-12-18T05:23:56;-4.90;99.90
43524;DHT22;29120;52.006;6.020;2022-12-18T05:26:21;-5.00;99.90
43524;DHT22;29120;52.006;6.020;2022-12-18T05:28:47;-5.10;99.90
43524;DHT22;29120;52.006;6.020;2022-12-18T05:31:12;-5.00;99.90
43524;DHT22;29120;52.006;6.020;2022-12-18T05:33:38;-5.00;99.90
43524;DHT22;29120;52.006;6.020;2022-12-18T05:36:05;-5.00;99.90
43524;DHT22;29120;52.006;6.020;2022-12-18T05:38:31;-5.00;99.90
43524;DHT22;29120;52.006;6.020;2022-12-18T05:40:57;-5.00;99.90
43524;DHT22;29120;52.006;6.020;2022-12-18T05:43:22;-5.00;99.90
43524;DHT22;29120;52.006;6.020;2022-12-18T05:45:48;-5.00;99.90
43524;DHT22;29120;52.006;6.020;2022-12-18T05:48:14;-5.00;99.90
43524;DHT22;29120;52.006;6.020;2022-12-18T05:50:40;-5.00;99.90
43524;DHT22;29120;52.006;6.020;2022-12-18T05:53:06;-5.00;99.90
43524;DHT22;29120;52.006;6.020;2022-12-18T05:55:35;-5.10;99.90
43524;DHT22;29120;52.006;6.020;2022-12-18T05:58:01;-5.10;99.90
43524;DHT22;29120;52.006;6.020;2022-12-18T06:00:27;-5.10;99.90
43524;DHT22;29120;52.006;6.020;2022-12-18T06:02:52;-5.10;99.90
43524;DHT22;29120;52.006;6.020;2022-12-18T06:05:18;-5.10;99.90
43524;DHT22;29120;52.006;6.020;2022-12-18T06:07:43;-5.20;99.90
43524;DHT22;29120;52.006;6.020;2022-12-18T06:10:09;-5.10;99.90
43524;DHT22;29120;52.006;6.020;2022-12-18T06:12:35;-5.10;99.90
43524;DHT22;29120;52.006;6.020;2022-12-18T06:15:00;-5.20;99.90
43524;DHT22;29120;52.006;6.020;2022-12-18T06:17:29;-5.20;99.90
43524;DHT22;29120;52.006;6.020;2022-12-18T06:19:55;-5.20;99.90
43524;DHT22;29120;52.006;6.020;2022-12-18T06:22:20;-5.20;99.90
43524;DHT22;29120;52.006;6.020;2022-12-18T06:24:45;-5.10;99.90
43524;DHT22;29120;52.006;6.020;2022-12-18T06:27:11;-5.10;99.90
43524;DHT22;29120;52.006;6.020;2022-12-18T06:29:36;-5.10;99.90
43524;DHT22;29120;52.006;6.020;2022-12-18T06:32:02;-5.10;99.90
43524;DHT22;29120;52.006;6.020;2022-12-18T06:34:30;-5.10;99.90
43524;DHT22;29120;52.006;6.020;2022-12-18T06:36:56;-5.10;99.90
43524;DHT22;29120;52.006;6.020;2022-12-18T06:39:21;-5.10;99.90
43524;DHT22;29120;52.006;6.020;2022-12-18T06:41:47;-5.10;99.90
43524;DHT22;29120;52.006;6.020;2022-12-18T06:44:12;-5.10;99.90
43524;DHT22;29120;52.006;6.020;2022-12-18T06:46:38;-5.10;99.90
43524;DHT22;29120;52.006;6.020;2022-12-18T06:49:03;-5.10;99.90
43524;DHT22;29120;52.006;6.020;2022-12-18T06:51:29;-5.00;99.90
43524;DHT22;29120;52.006;6.020;2022-12-18T06:53:54;-5.10;99.90
43524;DHT22;29120;52.006;6.020;2022-12-18T06:56:20;-5.10;99.90
43524;DHT22;29120;52.006;6.020;2022-12-18T06:58:45;-5.10;99.90
43524;DHT22;29120;52.006;6.020;2022-12-18T07:01:11;-5.10;99.90
43524;DHT22;29120;52.006;6.020;2022-12-18T07:03:37;-5.10;99.90
43524;DHT22;29120;52.006;6.020;2022-12-18T07:06:03;-5.10;99.90
43524;DHT22;29120;52.006;6.020;2022-12-18T07:08:29;-5.10;99.90
43524;DHT22;29120;52.006;6.020;2022-12-18T07:10:55;-5.10;99.90
43524;DHT22;29120;52.006;6.020;2022-12-18T07:13:20;-5.10;99.90
43524;DHT22;29120;52.006;6.020;2022-12-18T07:15:46;-5.00;99.90
43524;DHT22;29120;52.006;6.020;2022-12-18T07:18:11;-5.00;99.90
43524;DHT22;29120;52.006;6.020;2022-12-18T07:20:37;-4.90;99.90
43524;DHT22;29120;52.006;6.020;2022-12-18T07:23:03;-4.80;99.90
43524;DHT22;29120;52.006;6.020;2022-12-18T07:25:29;-4.80;99.90
43524;DHT22;29120;52.006;6.020;2022-12-18T07:27:54;-4.70;99.90
43524;DHT22;29120;52.006;6.020;2022-12-18T07:30:20;-4.70;99.90
43524;DHT22;29120;52.006;6.020;2022-12-18T07:32:45;-4.60;99.90
43524;DHT22;29120;52.006;6.020;2022-12-18T07:35:10;-4.60;99.90
43524;DHT22;29120;52.006;6.020;2022-12-18T07:37:36;-4.60;99.90
43524;DHT22;29120;52.006;6.020;2022-12-18T07:40:01;-4.50;99.90
43524;DHT22;29120;52.006;6.020;2022-12-18T07:42:27;-4.50;99.90
43524;DHT22;29120;52.006;6.020;2022-12-18T07:44:56;-4.60;99.90
43524;DHT22;29120;52.006;6.020;2022-12-18T07:47:21;-4.60;99.90
43524;DHT22;29120;52.006;6.020;2022-12-18T07:49:47;-4.60;99.90
43524;DHT22;29120;52.006;6.020;2022-12-18T07:52:13;-4.50;99.90
43524;DHT22;29120;52.006;6.020;2022-12-18T07:54:39;-4.60;99.90
43524;DHT22;29120;52.006;6.020;2022-12-18T07:57:05;-4.60;99.90
43524;DHT22;29120;52.006;6.020;2022-12-18T07:59:31;-4.50;99.90
43524;DHT22;29120;52.006;6.020;2022-12-18T08:01:56;-4.50;99.90
43524;DHT22;29120;52.006;6.020;2022-12-18T08:04:22;-4.40;99.90
43524;DHT22;29120;52.006;6.020;2022-12-18T08:06:47;-4.30;99.90
43524;DHT22;29120;52.006;6.020;2022-12-18T08:09:13;-4.30;99.90
43524;DHT22;29120;52.006;6.020;2022-12-18T08:11:38;-4.20;99.90
43524;DHT22;29120;52.006;6.020;2022-12-18T08:14:04;-4.20;99.90
43524;DHT22;29120;52.006;6.020;2022-12-18T08:16:29;-4.10;99.90
43524;DHT22;29120;52.006;6.020;2022-12-18T08:18:55;-4.00;99.90
43524;DHT22;29120;52.006;6.020;2022-12-18T08:21:25;-4.00;99.90
43524;DHT22;29120;52.006;6.020;2022-12-18T08:23:52;-3.90;99.90
43524;DHT22;29120;52.006;6.020;2022-12-18T08:26:18;-3.80;99.90
43524;DHT22;29120;52.006;6.020;2022-12-18T08:28:43;-3.70;99.90
43524;DHT22;29120;52.006;6.020;2022-12-18T08:31:09;-3.60;99.90
43524;DHT22;29120;52.006;6.020;2022-12-18T08:33:34;-3.60;99.90
43524;DHT22;29120;52.006;6.020;2022-12-18T08:36:01;-3.50;99.90
43524;DHT22;29120;52.006;6.020;2022-12-18T08:38:26;-3.40;99.90
43524;DHT22;29120;52.006;6.020;2022-12-18T08:41:05;-3.30;99.90
43524;DHT22;29120;52.006;6.020;2022-12-18T08:43:31;-3.30;99.90
43524;DHT22;29120;52.006;6.020;2022-12-18T08:46:15;-3.20;99.90
43524;DHT22;29120;52.006;6.020;2022-12-18T08:48:41;-3.10;99.90
43524;DHT22;29120;52.006;6.020;2022-12-18T08:51:06;-3.00;99.90
43524;DHT22;29120;52.006;6.020;2022-12-18T08:53:34;-2.90;99.90
43524;DHT22;29120;52.006;6.020;2022-12-18T08:56:00;-2.80;99.90
43524;DHT22;29120;52.006;6.020;2022-12-18T08:58:25;-2.70;99.90
43524;DHT22;29120;52.006;6.020;2022-12-18T09:00:51;-2.60;99.80
43524;DHT22;29120;52.006;6.020;2022-12-18T09:03:17;-2.50;99.70
43524;DHT22;29120;52.006;6.020;2022-12-18T09:05:43;-2.40;99.70
43524;DHT22;29120;52.006;6.020;2022-12-18T09:08:10;-2.30;99.60
43524;DHT22;29120;52.006;6.020;2022-12-18T09:10:41;-2.20;99.50
43524;DHT22;29120;52.006;6.020;2022-12-18T09:13:06;-2.10;99.40
43524;DHT22;29120;52.006;6.020;2022-12-18T09:15:31;-2.00;99.30
43524;DHT22;29120;52.006;6.020;2022-12-18T09:17:57;-1.90;99.20
43524;DHT22;29120;52.006;6.020;2022-12-18T09:20:22;-1.80;99.10
43524;DHT22;29120;52.006;6.020;2022-12-18T09:22:48;-1.70;99.10
43524;DHT22;29120;52.006;6.020;2022-12-18T09:25:13;-1.60;99.10
43524;DHT22;29120;52.006;6.020;2022-12-18T09:27:39;-1.50;99.00
43524;DHT22;29120;52.006;6.020;2022-12-18T09:30:04;-1.40;98.80
43524;DHT22;29120;52.006;6.020;2022-12-18T09:32:30;-1.30;98.80
43524;DHT22;29120;52.006;6.020;2022-12-18T09:34:56;-1.20;98.60
43524;DHT22;29120;52.006;6.020;2022-12-18T09:37:21;-1.10;98.60
43524;DHT22;29120;52.006;6.020;2022-12-18T09:39:46;-1.00;98.50
43524;DHT22;29120;52.006;6.020;2022-12-18T09:42:20;-1.00;98.40
43524;DHT22;29120;52.006;6.020;2022-12-18T09:44:48;-0.80;98.30
43524;DHT22;29120;52.006;6.020;2022-12-18T09:47:28;-0.80;98.20
43524;DHT22;29120;52.006;6.020;2022-12-18T09:49:56;-0.70;98.10
43524;DHT22;29120;52.006;6.020;2022-12-18T09:52:27;-0.60;98.00
43524;DHT22;29120;52.006;6.020;2022-12-18T09:55:01;-0.50;98.10
43524;DHT22;29120;52.006;6.020;2022-12-18T09:57:29;-0.40;98.00
43524;DHT22;29120;52.006;6.020;2022-12-18T09:59:56;-0.40;97.80
43524;DHT22;29120;52.006;6.020;2022-12-18T10:02:24;-0.40;97.80
43524;DHT22;29120;52.006;6.020;2022-12-18T10:04:54;-0.30;97.80
43524;DHT22;29120;52.006;6.020;2022-12-18T10:07:25;-0.30;97.80
43524;DHT22;29120;52.006;6.020;2022-12-18T10:10:18;-0.30;97.60
43524;DHT22;29120;52.006;6.020;2022-12-18T10:15:13;-0.20;97.60
43524;DHT22;29120;52.006;6.020;2022-12-18T10:17:42;-0.20;97.50
43524;DHT22;29120;52.006;6.020;2022-12-18T10:20:30;-0.10;97.50
43524;DHT22;29120;52.006;6.020;2022-12-18T10:25:31;0.00;97.20
43524;DHT22;29120;52.006;6.020;2022-12-18T10:28:10;0.10;97.10
43524;DHT22;29120;52.006;6.020;2022-12-18T10:30:37;0.30;97.10
43524;DHT22;29120;52.006;6.020;2022-12-18T10:33:03;0.40;96.70
43524;DHT22;29120;52.006;6.020;2022-12-18T10:35:28;0.40;96.50
43524;DHT22;29120;52.006;6.020;2022-12-18T10:38:01;0.50;96.50
43524;DHT22;29120;52.006;6.020;2022-12-18T10:40:27;0.60;96.50
43524;DHT22;29120;52.006;6.020;2022-12-18T10:45:30;0.60;96.40
43524;DHT22;29120;52.006;6.020;2022-12-18T10:47:55;0.60;96.40
43524;DHT22;29120;52.006;6.020;2022-12-18T10:50:32;0.60;96.40
43524;DHT22;29120;52.006;6.020;2022-12-18T10:53:01;0.50;96.40
43524;DHT22;29120;52.006;6.020;2022-12-18T10:55:31;0.50;96.40
43524;DHT22;29120;52.006;6.020;2022-12-18T10:58:13;0.50;96.50
43524;DHT22;29120;52.006;6.020;2022-12-18T11:00:38;0.40;96.00
43524;DHT22;29120;52.006;6.020;2022-12-18T11:03:07;0.40;96.20
43524;DHT22;29120;52.006;6.020;2022-12-18T11:05:49;0.50;96.30
43524;DHT22;29120;52.006;6.020;2022-12-18T11:08:26;0.50;96.30
43524;DHT22;29120;52.006;6.020;2022-12-18T11:10:51;0.50;96.20
43524;DHT22;29120;52.006;6.020;2022-12-18T11:13:17;0.50;96.20
43524;DHT22;29120;52.006;6.020;2022-12-18T11:15:44;0.50;96.20
43524;DHT22;29120;52.006;6.020;2022-12-18T11:18:16;0.50;96.30
43524;DHT22;29120;52.006;6.020;2022-12-18T11:20:43;0.60;96.30
43524;DHT22;29120;52.006;6.020;2022-12-18T11:23:14;0.60;96.30
43524;DHT22;29120;52.006;6.020;2022-12-18T11:25:40;0.60;96.10
43524;DHT22;29120;52.006;6.020;2022-12-18T11:30:50;0.70;96.20
43524;DHT22;29120;52.006;6.020;2022-12-18T11:33:33;0.70;96.10
43524;DHT22;29120;52.006;6.020;2022-12-18T11:36:00;0.80;96.20
43524;DHT22;29120;52.006;6.020;2022-12-18T11:43:34;0.80;96.10
43524;DHT22;29120;52.006;6.020;2022-12-18T11:46:10;0.90;96.00
43524;DHT22;29120;52.006;6.020;2022-12-18T11:49:11;0.90;96.00
43524;DHT22;29120;52.006;6.020;2022-12-18T11:51:34;1.00;96.00
43524;DHT22;29120;52.006;6.020;2022-12-18T11:54:00;1.00;95.80
43524;DHT22;29120;52.006;6.020;2022-12-18T11:56:31;1.00;95.80
43524;DHT22;29120;52.006;6.020;2022-12-18T11:59:20;1.00;95.80
43524;DHT22;29120;52.006;6.020;2022-12-18T12:06:47;1.10;95.80
43524;DHT22;29120;52.006;6.020;2022-12-18T12:11:47;1.20;95.80
43524;DHT22;29120;52.006;6.020;2022-12-18T12:14:20;1.30;95.80
43524;DHT22;29120;52.006;6.020;2022-12-18T12:17:51;1.30;95.70
43524;DHT22;29120;52.006;6.020;2022-12-18T12:19:45;1.30;95.70
43524;DHT22;29120;52.006;6.020;2022-12-18T12:25:10;1.30;95.60
43524;DHT22;29120;52.006;6.020;2022-12-18T12:27:52;1.30;95.60
43524;DHT22;29120;52.006;6.020;2022-12-18T12:32:48;1.30;95.70
43524;DHT22;29120;52.006;6.020;2022-12-18T12:40:27;1.40;95.30
43524;DHT22;29120;52.006;6.020;2022-12-18T12:42:55;1.30;95.20
43524;DHT22;29120;52.006;6.020;2022-12-18T12:48:21;1.30;95.00
43524;DHT22;29120;52.006;6.020;2022-12-18T12:50:51;1.30;95.20
43524;DHT22;29120;52.006;6.020;2022-12-18T12:53:22;1.30;94.80
43524;DHT22;29120;52.006;6.020;2022-12-18T12:55:49;1.30;94.60
43524;DHT22;29120;52.006;6.020;2022-12-18T13:03:46;1.30;94.70
43524;DHT22;29120;52.006;6.020;2022-12-18T13:06:19;1.30;94.70
43524;DHT22;29120;52.006;6.020;2022-12-18T13:09:00;1.30;94.60
43524;DHT22;29120;52.006;6.020;2022-12-18T13:11:36;1.40;94.60
43524;DHT22;29120;52.006;6.020;2022-12-18T13:14:28;1.40;94.60
43524;DHT22;29120;52.006;6.020;2022-12-18T13:19:38;1.40;94.60
43524;DHT22;29120;52.006;6.020;2022-12-18T13:22:04;1.40;94.50
43524;DHT22;29120;52.006;6.020;2022-12-18T13:24:30;1.40;94.50
43524;DHT22;29120;52.006;6.020;2022-12-18T13:26:55;1.40;94.40
43524;DHT22;29120;52.006;6.020;2022-12-18T13:32:24;1.40;94.50
43524;DHT22;29120;52.006;6.020;2022-12-18T13:37:41;1.40;94.60
43524;DHT22;29120;52.006;6.020;2022-12-18T13:42:51;1.40;94.60
43524;DHT22;29120;52.006;6.020;2022-12-18T13:45:43;1.40;94.60
43524;DHT22;29120;52.006;6.020;2022-12-18T13:48:17;1.30;94.50
43524;DHT22;29120;52.006;6.020;2022-12-18T13:50:46;1.40;94.60
43524;DHT22;29120;52.006;6.020;2022-12-18T13:53:19;1.30;94.40
43524;DHT22;29120;52.006;6.020;2022-12-18T13:55:46;1.30;94.40
43524;DHT22;29120;52.006;6.020;2022-12-18T13:58:12;1.30;94.40
43524;DHT22;29120;52.006;6.020;2022-12-18T14:00:41;1.30;94.40
43524;DHT22;29120;52.006;6.020;2022-12-18T14:06:03;1.30;94.40
43524;DHT22;29120;52.006;6.020;2022-12-18T14:08:35;1.30;94.40
43524;DHT22;29120;52.006;6.020;2022-12-18T14:11:02;1.30;94.40
43524;DHT22;29120;52.006;6.020;2022-12-18T14:13:30;1.30;94.40
43524;DHT22;29120;52.006;6.020;2022-12-18T14:15:56;1.30;94.40
43524;DHT22;29120;52.006;6.020;2022-12-18T14:21:01;1.30;94.20
43524;DHT22;29120;52.006;6.020;2022-12-18T14:23:37;1.30;94.20
43524;DHT22;29120;52.006;6.020;2022-12-18T14:26:19;1.30;94.20
43524;DHT22;29120;52.006;6.020;2022-12-18T14:28:45;1.30;94.20
43524;DHT22;29120;52.006;6.020;2022-12-18T14:31:17;1.30;94.20
43524;DHT22;29120;52.006;6.020;2022-12-18T14:33:43;1.30;94.40
43524;DHT22;29120;52.006;6.020;2022-12-18T14:36:14;1.30;94.20
43524;DHT22;29120;52.006;6.020;2022-12-18T14:38:41;1.30;94.10
43524;DHT22;29120;52.006;6.020;2022-12-18T14:41:10;1.20;94.00
43524;DHT22;29120;52.006;6.020;2022-12-18T14:43:38;1.20;94.00
43524;DHT22;29120;52.006;6.020;2022-12-18T14:46:04;1.30;94.10
43524;DHT22;29120;52.006;6.020;2022-12-18T14:48:35;1.30;94.00
43524;DHT22;29120;52.006;6.020;2022-12-18T14:51:02;1.30;93.90
43524;DHT22;29120;52.006;6.020;2022-12-18T14:53:33;1.30;93.90
43524;DHT22;29120;52.006;6.020;2022-12-18T14:55:59;1.20;93.80
43524;DHT22;29120;52.006;6.020;2022-12-18T14:58:25;1.20;93.70
43524;DHT22;29120;52.006;6.020;2022-12-18T15:00:50;1.20;93.70
43524;DHT22;29120;52.006;6.020;2022-12-18T15:03:19;1.20;93.60
43524;DHT22;29120;52.006;6.020;2022-12-18T15:05:45;1.20;93.60
43524;DHT22;29120;52.006;6.020;2022-12-18T15:08:27;1.20;93.70
43524;DHT22;29120;52.006;6.020;2022-12-18T15:10:53;1.20;93.70
43524;DHT22;29120;52.006;6.020;2022-12-18T15:13:22;1.20;93.50
43524;DHT22;29120;52.006;6.020;2022-12-18T15:15:48;1.20;93.60
43524;DHT22;29120;52.006;6.020;2022-12-18T15:18:15;1.20;93.60
43524;DHT22;29120;52.006;6.020;2022-12-18T15:26:00;1.20;93.60
43524;DHT22;29120;52.006;6.020;2022-12-18T15:28:27;1.20;93.40
43524;DHT22;29120;52.006;6.020;2022-12-18T15:31:36;1.20;93.30
43524;DHT22;29120;52.006;6.020;2022-12-18T15:33:44;1.20;93.40
43524;DHT22;29120;52.006;6.020;2022-12-18T15:36:12;1.20;93.30
43524;DHT22;29120;52.006;6.020;2022-12-18T15:38:38;1.20;93.00
43524;DHT22;29120;52.006;6.020;2022-12-18T15:41:10;1.20;93.00
43524;DHT22;29120;52.006;6.020;2022-12-18T15:43:37;1.20;92.50
43524;DHT22;29120;52.006;6.020;2022-12-18T15:46:03;1.10;92.20
43524;DHT22;29120;52.006;6.020;2022-12-18T15:48:29;1.10;92.20
43524;DHT22;29120;52.006;6.020;2022-12-18T15:50:56;1.10;92.10
43524;DHT22;29120;52.006;6.020;2022-12-18T15:53:22;1.10;92.20
43524;DHT22;29120;52.006;6.020;2022-12-18T15:55:48;1.10;91.80
43524;DHT22;29120;52.006;6.020;2022-12-18T15:58:32;1.10;91.80
43524;DHT22;29120;52.006;6.020;2022-12-18T16:00:58;1.10;91.90
43524;DHT22;29120;52.006;6.020;2022-12-18T16:03:24;1.10;91.90
43524;DHT22;29120;52.006;6.020;2022-12-18T16:05:50;1.10;92.00
43524;DHT22;29120;52.006;6.020;2022-12-18T16:08:15;1.10;91.90
43524;DHT22;29120;52.006;6.020;2022-12-18T16:10:41;1.10;91.90
43524;DHT22;29120;52.006;6.020;2022-12-18T16:13:09;1.10;91.80
43524;DHT22;29120;52.006;6.020;2022-12-18T16:15:35;1.10;92.20
43524;DHT22;29120;52.006;6.020;2022-12-18T16:18:00;1.10;92.00
43524;DHT22;29120;52.006;6.020;2022-12-18T16:20:26;1.00;91.90
43524;DHT22;29120;52.006;6.020;2022-12-18T16:22:51;1.00;91.80
43524;DHT22;29120;52.006;6.020;2022-12-18T16:25:22;1.00;91.80
43524;DHT22;29120;52.006;6.020;2022-12-18T16:27:47;1.00;91.80
43524;DHT22;29120;52.006;6.020;2022-12-18T16:30:17;1.00;91.70
43524;DHT22;29120;52.006;6.020;2022-12-18T16:32:43;1.00;91.60
43524;DHT22;29120;52.006;6.020;2022-12-18T16:35:12;1.00;91.60
43524;DHT22;29120;52.006;6.020;2022-12-18T16:37:38;0.90;91.70
43524;DHT22;29120;52.006;6.020;2022-12-18T16:40:04;0.90;91.50
43524;DHT22;29120;52.006;6.020;2022-12-18T16:42:30;0.90;91.60
43524;DHT22;29120;52.006;6.020;2022-12-18T16:44:56;0.90;91.50
43524;DHT22;29120;52.006;6.020;2022-12-18T16:47:21;0.90;91.60
43524;DHT22;29120;52.006;6.020;2022-12-18T16:49:47;0.80;91.60
43524;DHT22;29120;52.006;6.020;2022-12-18T16:52:15;0.80;91.60
43524;DHT22;29120;52.006;6.020;2022-12-18T16:54:41;0.80;91.60
43524;DHT22;29120;52.006;6.020;2022-12-18T16:57:08;0.80;91.60
43524;DHT22;29120;52.006;6.020;2022-12-18T16:59:34;0.80;91.70
43524;DHT22;29120;52.006;6.020;2022-12-18T17:01:59;0.70;91.80